Station info - map view · info · telemetry · weather · raw · status · beacons · messages · bulletins · browse · moving · my account
Callsign, ship name or locator: Clear       
It is possible to search using wildcards (*?) after a prefix. Example: OH*
APRS station LE1CB - show graphs
Map loading...
Mic-E message: In service
Location: 59°56.53' N 10°51.20' E - locator JO59KW26JC - show map - static map
3.6 miles West bearing 283° from Kjenn, Lørenskog, Akershus county, Norway [?]
4.2 miles Northeast bearing 61° from Oslo, Oslo, Oslo County, Norway
6.8 miles West bearing 262° from Lillestrøm, Skedsmo, Akershus county, Norway
26.3 miles Northeast bearing 58° from Drammen, Drammen, Buskerud county, Norway
Last position: 2019-11-16 03:34:17 EST (1d 11h59m ago)
2019-11-16 09:34:17 CET local time at Kjenn, Norway [?]
Altitude: 430 ft
Course: 140°
Speed: 0 MPH
Device: Kenwood: TM-D710 (rig)
Last path: LE1CB>U9UV53 via WIDE1-1,WIDE2-1,qAR,LD1OS (good)
Positions stored: 177
Packet rate: 1141 seconds between packets on average during 22821 seconds.
APRS digipeater – Statistics for 2019-11:
Stations heard directly: 20 on radio path – show map
Last heard a station directly: 2019-11-16 03:14:50 EST (1d 12h18m ago)
Position packets heard directly: 1347 on radio path
Stations near current position of LE1CB - show more
callsign distance last heard - EST      callsign distance last heard - EST
LE1AUN0.0 yards 0°2019-11-16 02:00:18 LE1CTP10.3 yards 90°2019-11-16 03:37:01
LE1CTD19.4 yards 0°2019-11-16 03:36:07 LE1CTN20.7 yards 180°2019-11-16 02:06:05
LE1AUQ20.7 yards 180°2019-11-16 02:15:56 LE1CTE23.1 yards 153°2019-11-16 01:57:35
LE1ASA23.1 yards 153°2019-11-16 02:15:49 LE1CTA29.2 yards 135°2019-11-16 01:20:11
LE1AUD40.1 yards 0°2019-11-16 01:20:54 LE1ASB42.4 yards 193°2019-11-16 03:34:48
LE1AUF42.6 yards 166°2019-11-16 03:30:44 LB3UI51.1 yards 90°2019-11-16 03:36:56
LE1CTC51.3 yards 216°2019-11-16 00:26:56 LE1CTB55.1 yards 112°2019-11-16 02:55:43
LE1AUK61.6 yards 170°2019-11-16 02:25:11 LE1ASG64.0 yards 198°2019-11-16 01:36:49
LE1CTJ86.9 yards 160°2019-11-16 02:48:17 LE1ASF280.0 yards 136°2019-11-16 02:57:28
LA9VPA-91.1 miles 289°2019-11-13 10:32:57 LB6YD1.2 miles 99°2019-10-27 10:49:34
Stations which heard LE1CB directly on radio –
callsign pkts first heard - EST last heard longest (tx => rx) longest at - EST
LD3KS 1 2019-11-15 21:27:38 2019-11-15 21:27:38 JO59KW > JO49SQ 48.1 miles 248° 2019-11-15 21:27:38
LD1OS 20 2019-11-15 21:13:56 2019-11-16 03:34:17 JO59KW > JO59IV 4.6 miles 245° 2019-11-16 01:54:17

Only position packets which were originated by the station are shown here. The range statistics show some extra long hops, because some digipeaters do not correctly add themselves to the digipeater path. Please check the raw packets.
Stations heard directly by LE1CB
callsign pkts first heard - EST last heard longest (rx => tx) longest at - EST
LE1CTE 59 2019-11-15 21:13:50 2019-11-16 01:34:10 JO59KW > JO59LW 2.6 miles 290° 2019-11-15 21:13:50
LE1CTB 133 2019-11-15 21:12:55 2019-11-16 03:01:58 JO59KW > JO59LW 2.6 miles 292° 2019-11-15 21:12:55
LE1CTC 86 2019-11-15 21:13:45 2019-11-16 00:26:56 JO59KW > JO59LW 2.5 miles 292° 2019-11-15 21:13:45
LE1CTD 115 2019-11-15 21:16:40 2019-11-16 03:36:07 JO59KW > JO59KW 1.0 miles 18° 2019-11-16 02:58:07
LE1CTA 76 2019-11-15 21:13:43 2019-11-16 01:20:11 JO59KW > JO59LW 2.6 miles 292° 2019-11-15 21:13:43
LE1AUK 31 2019-11-15 21:17:22 2019-11-16 02:25:11 JO59KW > JO59KW 84.0 yards 346° 2019-11-16 02:23:09
LE1CTN 103 2019-11-15 21:14:29 2019-11-16 02:06:05 JO59KW > JO59KW 0.4 miles 24° 2019-11-16 00:40:18
LE1CTJ 87 2019-11-15 21:17:28 2019-11-16 02:48:17 JO59KW > JO59KW 1.2 miles 202° 2019-11-16 02:15:09
LE1AUM 108 2019-11-15 21:16:12 2019-11-16 02:36:55 JO59KW > JO59KW 0.5 miles 34° 2019-11-16 01:50:19
LE1AUN 44 2019-11-15 21:18:02 2019-11-16 02:00:18 JO59KW > JO59KW 1.1 miles 78° 2019-11-16 00:22:13
LE1ASA 50 2019-11-15 21:13:07 2019-11-16 02:15:49 JO59KW > JO59LW 2.5 miles 292° 2019-11-15 21:13:07
LE1AUQ 90 2019-11-15 21:14:19 2019-11-16 02:15:56 JO59KW > JO59KW 398.4 yards 15° 2019-11-15 23:48:07
LE1ASB 98 2019-11-15 21:14:49 2019-11-16 03:34:48 JO59KW > JO59KW 193.9 yards 276° 2019-11-16 01:28:44
LE1CTP 41 2019-11-15 23:32:59 2019-11-16 03:37:01 JO59KW > JO59KW 86.9 yards 340° 2019-11-16 02:27:51
LE1ASG 49 2019-11-15 22:07:29 2019-11-16 01:36:37 JO59KW > JO59KW 1.2 miles 81° 2019-11-16 00:20:55
LE1ASF 62 2019-11-15 21:16:00 2019-11-16 02:57:14 JO59KW > JO59KW 1.3 miles 206° 2019-11-16 02:16:06
LE1AUF 40 2019-11-15 22:13:12 2019-11-16 03:30:44 JO59KW > JO59KW 183.8 yards 276° 2019-11-16 03:13:54
LE1AUD 21 2019-11-15 21:20:19 2019-11-16 01:20:36 JO59KW > JO59KW 68.0 yards 153° 2019-11-15 21:50:31
LE1AUG 43 2019-11-15 23:25:56 2019-11-16 03:44:47 JO59KW > JO59KW 106.5 yards 343° 2019-11-16 02:18:56
LB3UI 11 2019-11-16 03:13:19 2019-11-16 03:36:56 JO59KW > JO59KW 0.7 miles 281° 2019-11-16 03:13:19

Only stations from which a position packet has been heard are shown here. The range statistics show some extra long hops, because some digipeaters do not correctly add themselves to the digipeater path. Please check the raw packets.
About this site
This page shows real-time information collected from the Automatic Position Reporting System Internet network (APRS-IS). APRS is used by amateur (ham) radio operators to transmit real-time position information, weather data, telemetry and messages over the radio. A vehicle equipped with a GPS receiver, a VHF transmitter or HF transceiver and a small computer device called a tracker transmits it's location, speed and course in a small data packet, which is then received by a nearby iGate receiving site which forwards the packet on the Internet. Systems connected to the Internet can send information on the APRS-IS without a radio transmitter, or collect and display information transmitted anywhere in the world.
User guide · FAQ · Blog · Discussion group · Linking to aprs.fi · AIS sites · Service status · Database statistics · Advertising on aprs.fi · Technical details · API · Change log · Planned changes · Credits and thanks · Terms Of Service · iPhone/iPad APRS